Time;durP1;ratioP1;P1;durP2;ratioP2;P2;SDS_P1;SDS_P2;PMS_P1;PMS_P2;Temp;Humidity;BMP_temperature;BMP_pressure;BME280_temperature;BME280_humidity;BME280_pressure;Samples;Min_cycle;Max_cycle;Signal;HPM_P1;HPM_P2
2022/08/31 00:05:41;;;;;;;0.63;0.63;;;19.70;96.70;;;;;;5021778;28;21518;-61
2022/08/31 00:08:08;;;;;;;0.68;0.68;;;19.70;96.70;;;;;;5031273;28;20442;-60
2022/08/31 00:10:39;;;;;;;0.50;0.50;;;19.70;96.80;;;;;;5026794;28;20514;-60
2022/08/31 00:13:08;;;;;;;0.50;0.50;;;19.60;96.80;;;;;;5022548;28;20921;-61
2022/08/31 00:15:35;;;;;;;0.90;0.90;;;19.60;96.80;;;;;;5026625;28;20467;-60
2022/08/31 00:18:03;;;;;;;0.57;0.57;;;19.60;96.80;;;;;;5019096;28;20815;-61
2022/08/31 00:20:30;;;;;;;0.60;0.60;;;19.60;96.90;;;;;;5022047;28;20521;-61
2022/08/31 00:23:08;;;;;;;0.67;0.67;;;19.50;97.30;;;;;;5028721;28;20427;-61
2022/08/31 00:25:38;;;;;;;0.98;0.98;;;19.50;97.00;;;;;;5028661;28;20461;-61
2022/08/31 00:28:09;;;;;;;0.70;0.60;;;19.50;97.10;;;;;;5020524;28;20436;-61
2022/08/31 00:30:36;;;;;;;0.70;0.70;;;19.50;97.10;;;;;;5006950;28;20455;-60
2022/08/31 00:33:04;;;;;;;0.57;0.57;;;19.60;97.10;;;;;;5023630;28;20466;-61
2022/08/31 00:35:35;;;;;;;0.52;0.52;;;19.60;97.10;;;;;;5020542;28;20923;-61
2022/08/31 00:38:04;;;;;;;0.63;0.63;;;19.60;97.20;;;;;;5026668;28;20440;-61
2022/08/31 00:40:32;;;;;;;0.73;0.68;;;19.60;97.10;;;;;;5027753;28;20497;-60
2022/08/31 00:43:10;;;;;;;0.60;0.60;;;19.60;97.10;;;;;;5022507;28;20489;-61
2022/08/31 00:45:36;;;;;;;0.40;0.40;;;19.60;97.00;;;;;;5024685;28;20436;-61
2022/08/31 00:48:03;;;;;;;0.50;0.50;;;19.60;97.10;;;;;;5018558;28;20432;-61
2022/08/31 00:50:31;;;;;;;0.70;0.70;;;19.60;97.20;;;;;;5027694;28;20439;-61
2022/08/31 00:52:59;;;;;;;0.60;0.60;;;19.60;97.20;;;;;;5024600;28;20465;-61
2022/08/31 00:55:34;;;;;;;1.20;0.50;;;19.50;97.20;;;;;;5027630;28;20463;-61
2022/08/31 00:58:05;;;;;;;0.70;0.60;;;19.50;97.30;;;;;;5026321;28;20459;-61
2022/08/31 01:00:33;;;;;;;0.82;0.82;;;19.40;97.50;;;;;;5027376;28;20434;-61
2022/08/31 01:03:02;;;;;;;0.52;0.52;;;19.40;97.60;;;;;;5025070;28;20424;-62
2022/08/31 01:05:32;;;;;;;0.50;0.50;;;19.30;97.70;;;;;;5014731;28;20425;-61
2022/08/31 01:08:03;;;;;;;0.70;0.70;;;19.40;97.70;;;;;;5014159;28;20437;-61
2022/08/31 01:10:35;;;;;;;1.40;0.98;;;19.30;97.70;;;;;;5026505;28;20438;-61
2022/08/31 01:13:02;;;;;;;0.50;0.50;;;19.30;97.70;;;;;;5022454;28;20854;-61
2022/08/31 01:15:30;;;;;;;0.40;0.40;;;19.30;97.80;;;;;;5018655;28;20516;-60
2022/08/31 01:18:01;;;;;;;0.80;0.60;;;19.20;97.90;;;;;;5029427;28;20809;-60
2022/08/31 01:20:48;;;;;;;0.52;0.52;;;19.20;97.90;;;;;;5026573;28;20955;-60
2022/08/31 01:23:20;;;;;;;0.40;0.40;;;19.20;97.90;;;;;;5023963;28;20446;-60
2022/08/31 01:25:48;;;;;;;0.50;0.50;;;19.30;97.90;;;;;;5017310;28;20463;-61
2022/08/31 01:28:15;;;;;;;0.70;0.70;;;19.30;97.90;;;;;;5024565;28;20442;-60
2022/08/31 01:30:43;;;;;;;0.47;0.47;;;19.20;98.00;;;;;;5014576;28;21125;-60
2022/08/31 01:33:12;;;;;;;0.73;0.73;;;19.30;98.00;;;;;;5023094;28;20486;-60
2022/08/31 01:35:44;;;;;;;0.90;0.60;;;19.30;98.00;;;;;;5018783;28;20443;-60
2022/08/31 01:38:13;;;;;;;0.60;0.60;;;19.20;98.30;;;;;;5025662;28;20782;-60
2022/08/31 01:41:04;;;;;;;0.50;0.50;;;19.20;98.10;;;;;;5023945;28;20431;-59
2022/08/31 01:43:32;;;;;;;1.02;0.63;;;19.20;98.20;;;;;;5018599;28;20502;-61
2022/08/31 01:46:08;;;;;;;0.65;0.65;;;19.10;98.30;;;;;;5026071;28;20482;-60
2022/08/31 01:48:36;;;;;;;0.40;0.40;;;19.10;98.40;;;;;;5028799;28;20431;-59
2022/08/31 01:51:10;;;;;;;0.60;0.60;;;19.10;98.40;;;;;;5027860;28;20445;-60
2022/08/31 01:53:38;;;;;;;0.57;0.57;;;19.00;98.50;;;;;;5027343;28;20493;-60
2022/08/31 01:56:17;;;;;;;0.50;0.50;;;19.00;98.50;;;;;;5026603;28;20447;-60
2022/08/31 01:58:44;;;;;;;1.02;0.65;;;19.00;98.70;;;;;;5019959;28;20431;-60
2022/08/31 02:01:11;;;;;;;0.80;0.80;;;19.00;98.60;;;;;;5019760;28;21253;-60
2022/08/31 02:03:58;;;;;;;0.60;0.60;;;19.00;98.70;;;;;;5025690;28;21390;-60
2022/08/31 02:06:28;;;;;;;0.60;0.60;;;19.10;98.70;;;;;;5022424;28;20870;-61
2022/08/31 02:08:58;;;;;;;0.77;0.60;;;19.10;98.70;;;;;;5024012;28;20766;-60
2022/08/31 02:11:25;;;;;;;0.52;0.52;;;19.10;98.70;;;;;;5026776;28;20431;-60
2022/08/31 02:13:52;;;;;;;0.50;0.50;;;19.00;98.70;;;;;;5026294;28;20510;-61
2022/08/31 02:16:18;;;;;;;0.50;0.50;;;19.10;98.80;;;;;;5028734;28;20430;-61
2022/08/31 02:18:45;;;;;;;1.10;0.90;;;19.10;98.70;;;;;;5023655;28;20431;-60
2022/08/31 02:21:12;;;;;;;0.70;0.70;;;19.10;98.80;;;;;;5026306;28;20507;-61
2022/08/31 02:23:40;;;;;;;0.38;0.38;;;19.00;98.80;;;;;;5018416;28;20508;-60
2022/08/31 02:26:08;;;;;;;0.80;0.60;;;19.10;98.90;;;;;;5017475;28;20431;-61
2022/08/31 02:28:37;;;;;;;1.10;0.60;;;19.00;98.80;;;;;;5024413;28;20436;-60
2022/08/31 02:31:04;;;;;;;0.73;0.63;;;19.00;98.80;;;;;;5019376;28;20431;-61
2022/08/31 02:33:31;;;;;;;0.60;0.60;;;19.00;98.90;;;;;;5021233;28;20465;-60
2022/08/31 02:36:02;;;;;;;0.77;0.77;;;19.00;98.90;;;;;;5027812;28;20426;-60
2022/08/31 02:38:31;;;;;;;0.40;0.40;;;19.00;99.00;;;;;;5028428;28;21005;-61
2022/08/31 02:41:00;;;;;;;1.57;0.60;;;19.00;98.90;;;;;;5022331;28;20778;-60
2022/08/31 02:43:27;;;;;;;0.63;0.63;;;19.10;99.00;;;;;;5021899;28;20565;-60
2022/08/31 02:45:54;;;;;;;0.60;0.50;;;19.10;99.00;;;;;;5026859;28;20454;-61
2022/08/31 02:48:21;;;;;;;0.60;0.60;;;19.00;99.10;;;;;;5026880;28;20861;-60
2022/08/31 02:50:51;;;;;;;0.60;0.60;;;19.00;99.10;;;;;;5023585;28;20906;-59
2022/08/31 02:53:22;;;;;;;1.10;0.57;;;19.00;99.20;;;;;;5022968;28;20461;-60
2022/08/31 02:55:49;;;;;;;0.50;0.50;;;19.00;99.20;;;;;;5022118;28;20508;-60
2022/08/31 02:58:16;;;;;;;0.50;0.50;;;19.10;99.30;;;;;;5023582;28;20439;-60
2022/08/31 03:00:49;;;;;;;0.80;0.80;;;19.00;99.20;;;;;;5016644;28;20419;-60
2022/08/31 03:03:20;;;;;;;0.77;0.77;;;19.00;99.20;;;;;;5025875;28;20423;-60
2022/08/31 03:05:48;;;;;;;0.40;0.40;;;19.00;99.30;;;;;;5028531;28;20438;-60
2022/08/31 03:08:15;;;;;;;0.68;0.68;;;19.00;99.40;;;;;;5029937;28;20513;-60
2022/08/31 03:10:42;;;;;;;0.60;0.60;;;18.90;99.50;;;;;;5030845;28;20800;-60
2022/08/31 03:13:08;;;;;;;0.70;0.70;;;18.90;99.50;;;;;;5024520;28;20436;-60
2022/08/31 03:15:35;;;;;;;0.80;0.80;;;18.90;99.60;;;;;;5028340;28;20437;-60
2022/08/31 03:18:03;;;;;;;0.80;0.80;;;19.00;99.60;;;;;;5021155;28;20430;-60
2022/08/31 03:20:33;;;;;;;0.57;0.57;;;19.00;99.50;;;;;;5032359;28;20438;-60
2022/08/31 03:23:01;;;;;;;0.40;0.40;;;19.00;99.60;;;;;;5019519;28;20427;-60
2022/08/31 03:25:30;;;;;;;0.93;0.90;;;19.00;99.70;;;;;;5031160;28;20430;-60
2022/08/31 03:27:56;;;;;;;0.60;0.60;;;19.00;99.60;;;;;;5030221;28;20473;-60
2022/08/31 03:30:24;;;;;;;0.75;0.75;;;19.10;99.70;;;;;;5026141;28;20536;-60
2022/08/31 03:32:53;;;;;;;0.90;0.70;;;19.00;99.70;;;;;;5028992;28;20461;-60
2022/08/31 03:35:29;;;;;;;0.98;0.57;;;19.10;99.70;;;;;;5029552;28;20434;-60
2022/08/31 03:37:56;;;;;;;0.50;0.50;;;19.00;99.70;;;;;;5018650;28;20492;-60
2022/08/31 03:40:23;;;;;;;0.70;0.70;;;19.00;99.90;;;;;;5026141;28;20432;-61
2022/08/31 03:42:50;;;;;;;0.90;0.73;;;19.00;99.90;;;;;;5031616;28;20423;-61
2022/08/31 03:45:17;;;;;;;0.60;0.60;;;18.90;99.90;;;;;;5028815;28;20438;-61
2022/08/31 03:47:44;;;;;;;0.80;0.80;;;18.90;99.90;;;;;;5027987;28;20471;-60
2022/08/31 03:50:11;;;;;;;0.50;0.50;;;18.90;99.90;;;;;;5019605;28;20426;-60
2022/08/31 03:52:38;;;;;;;1.20;1.10;;;18.90;99.90;;;;;;5029245;28;20435;-60
2022/08/31 03:55:06;;;;;;;0.73;0.73;;;18.90;99.90;;;;;;5022934;28;20426;-60
2022/08/31 03:57:33;;;;;;;0.50;0.50;;;18.90;99.90;;;;;;5030821;28;20498;-60
2022/08/31 04:00:00;;;;;;;0.50;0.50;;;18.90;99.90;;;;;;5017683;28;20524;-60
2022/08/31 04:02:27;;;;;;;0.60;0.60;;;18.90;99.90;;;;;;5029032;28;20417;-60
2022/08/31 04:04:54;;;;;;;0.73;0.73;;;18.90;99.90;;;;;;5029568;28;20425;-60
2022/08/31 04:07:21;;;;;;;0.65;0.65;;;18.90;99.90;;;;;;5028657;28;20426;-60
2022/08/31 04:09:49;;;;;;;0.75;0.75;;;18.90;99.90;;;;;;5020972;28;20925;-60
2022/08/31 04:12:17;;;;;;;0.60;0.60;;;18.90;99.90;;;;;;5018422;28;20493;-60
2022/08/31 04:14:44;;;;;;;0.57;0.57;;;18.90;99.90;;;;;;5027085;28;20466;-60
2022/08/31 04:17:12;;;;;;;0.50;0.50;;;19.00;99.90;;;;;;5011803;28;20527;-60
2022/08/31 04:19:40;;;;;;;0.60;0.60;;;19.00;99.90;;;;;;5027633;28;20466;-60
2022/08/31 04:22:07;;;;;;;0.50;0.50;;;19.00;99.90;;;;;;5022925;28;20527;-60
2022/08/31 04:24:34;;;;;;;0.65;0.65;;;19.00;99.90;;;;;;5023162;28;20438;-60
2022/08/31 04:27:01;;;;;;;1.00;0.90;;;19.00;99.90;;;;;;5024762;28;20431;-60
2022/08/31 04:29:27;;;;;;;0.70;0.70;;;19.00;99.90;;;;;;5029472;28;20991;-60
2022/08/31 04:31:55;;;;;;;0.82;0.60;;;19.00;99.90;;;;;;5030031;28;20435;-60
2022/08/31 04:34:21;;;;;;;0.68;0.68;;;19.00;99.90;;;;;;5029825;28;20431;-60
2022/08/31 04:36:48;;;;;;;0.50;0.50;;;18.90;99.90;;;;;;5028854;28;20951;-60
2022/08/31 04:39:16;;;;;;;0.50;0.50;;;18.90;99.90;;;;;;5027209;28;20438;-60
2022/08/31 04:41:44;;;;;;;0.60;0.60;;;19.00;99.90;;;;;;5006229;28;20949;-60
2022/08/31 04:44:14;;;;;;;1.80;0.65;;;18.90;99.90;;;;;;5024033;28;20453;-60
2022/08/31 04:46:45;;;;;;;0.47;0.47;;;19.00;99.90;;;;;;5021168;28;20435;-60
2022/08/31 04:49:14;;;;;;;0.50;0.50;;;19.00;99.90;;;;;;5021070;28;20429;-60
2022/08/31 04:51:41;;;;;;;1.20;0.50;;;19.00;99.90;;;;;;5025015;28;20517;-60
2022/08/31 04:54:10;;;;;;;0.75;0.75;;;18.90;99.90;;;;;;5025533;28;20440;-60
2022/08/31 04:56:45;;;;;;;0.50;0.50;;;19.00;99.90;;;;;;5017954;28;20444;-60
2022/08/31 04:59:14;;;;;;;0.73;0.73;;;18.90;99.90;;;;;;5022449;28;20423;-60
2022/08/31 05:01:44;;;;;;;0.50;0.50;;;18.90;99.90;;;;;;5018467;28;20963;-60
2022/08/31 05:04:13;;;;;;;0.77;0.77;;;18.90;99.90;;;;;;5022876;28;20482;-60
2022/08/31 05:06:42;;;;;;;1.40;0.80;;;18.80;99.90;;;;;;5023473;28;20835;-60
2022/08/31 05:09:12;;;;;;;1.15;0.88;;;18.80;99.90;;;;;;5023143;28;20491;-60
2022/08/31 05:11:43;;;;;;;0.50;0.50;;;18.80;99.90;;;;;;5023833;28;20478;-60
2022/08/31 05:14:11;;;;;;;0.57;0.57;;;18.80;99.90;;;;;;5019321;28;20467;-60
2022/08/31 05:16:39;;;;;;;0.40;0.40;;;18.70;99.90;;;;;;5016753;28;20818;-60
2022/08/31 05:19:06;;;;;;;0.50;0.50;;;18.50;99.90;;;;;;5017148;28;20470;-60
2022/08/31 05:21:36;;;;;;;0.40;0.40;;;18.40;99.90;;;;;;5024717;28;20453;-60
2022/08/31 05:24:21;;;;;;;0.70;0.70;;;18.50;99.90;;;;;;5021827;28;20862;-60
2022/08/31 05:26:54;;;;;;;0.70;0.70;;;18.40;99.90;;;;;;5018902;28;20924;-60
2022/08/31 05:29:24;;;;;;;0.93;0.93;;;18.50;99.90;;;;;;5020677;28;20431;-60
2022/08/31 05:31:51;;;;;;;0.40;0.40;;;18.60;99.90;;;;;;5023991;28;20432;-60
2022/08/31 05:34:20;;;;;;;0.70;0.70;;;18.60;99.90;;;;;;5022202;28;20538;-60
2022/08/31 05:36:54;;;;;;;0.60;0.60;;;18.70;99.90;;;;;;5025212;28;20917;-60
2022/08/31 05:39:21;;;;;;;0.82;0.55;;;18.80;99.90;;;;;;5021300;28;20436;-60
2022/08/31 05:41:48;;;;;;;0.50;0.50;;;18.80;99.90;;;;;;5021072;28;21805;-60
2022/08/31 05:44:16;;;;;;;0.50;0.50;;;18.80;99.90;;;;;;5025198;28;20430;-60
2022/08/31 05:46:46;;;;;;;0.80;0.80;;;18.90;99.90;;;;;;5024793;28;20507;-60
2022/08/31 05:49:22;;;;;;;0.50;0.50;;;18.90;99.90;;;;;;5018749;28;20434;-60
2022/08/31 05:51:55;;;;;;;0.65;0.65;;;19.00;99.90;;;;;;5017576;28;20431;-60
2022/08/31 05:54:22;;;;;;;0.45;0.45;;;19.00;99.90;;;;;;5019572;28;20436;-60
2022/08/31 05:56:52;;;;;;;0.60;0.60;;;19.00;99.90;;;;;;5024266;28;20445;-60
2022/08/31 05:59:19;;;;;;;0.43;0.43;;;19.10;99.90;;;;;;5018792;28;20514;-60
2022/08/31 06:01:46;;;;;;;0.60;0.60;;;19.10;99.90;;;;;;5019201;28;20430;-60
2022/08/31 06:04:13;;;;;;;0.70;0.70;;;19.10;99.90;;;;;;5024567;28;20453;-60
2022/08/31 06:06:40;;;;;;;0.87;0.83;;;19.10;99.90;;;;;;5020880;28;20428;-60
2022/08/31 06:09:07;;;;;;;0.88;0.88;;;19.20;99.90;;;;;;5018861;28;20939;-60
2022/08/31 06:11:39;;;;;;;1.52;0.80;;;19.10;99.90;;;;;;5021810;28;20559;-60
2022/08/31 06:14:08;;;;;;;0.80;0.80;;;19.20;99.90;;;;;;5018407;28;20864;-60
2022/08/31 06:16:38;;;;;;;0.60;0.60;;;19.20;99.90;;;;;;5025517;28;20502;-60
2022/08/31 06:19:06;;;;;;;0.75;0.75;;;19.20;99.90;;;;;;5010965;28;20517;-61
2022/08/31 06:21:36;;;;;;;1.00;1.00;;;19.20;99.90;;;;;;5020249;28;20436;-59
2022/08/31 06:24:05;;;;;;;0.60;0.60;;;19.20;99.90;;;;;;5024542;28;20502;-60
2022/08/31 06:26:34;;;;;;;1.30;1.10;;;19.20;99.90;;;;;;5020629;28;20463;-60
2022/08/31 06:29:04;;;;;;;0.80;0.80;;;19.20;99.90;;;;;;5022585;28;20437;-60
2022/08/31 06:31:35;;;;;;;1.00;1.00;;;19.20;99.90;;;;;;5020466;28;20554;-60
2022/08/31 06:34:05;;;;;;;0.70;0.70;;;19.10;99.90;;;;;;5016543;28;20432;-60
2022/08/31 06:36:33;;;;;;;0.70;0.70;;;19.00;99.90;;;;;;5013360;28;20459;-60
2022/08/31 06:39:01;;;;;;;0.95;0.95;;;19.00;99.90;;;;;;5019100;28;20442;-60
2022/08/31 06:41:30;;;;;;;1.23;0.95;;;18.90;99.90;;;;;;5022320;28;20551;-60
2022/08/31 06:44:04;;;;;;;0.70;0.70;;;18.80;99.90;;;;;;5023816;28;20982;-60
2022/08/31 06:46:34;;;;;;;0.73;0.73;;;18.80;99.90;;;;;;5027054;28;20518;-60
2022/08/31 06:49:01;;;;;;;0.90;0.90;;;18.70;99.90;;;;;;5005683;28;20532;-60
2022/08/31 06:51:35;;;;;;;1.50;0.90;;;18.50;99.90;;;;;;5020846;28;20525;-60
2022/08/31 06:54:05;;;;;;;1.25;0.90;;;18.40;99.90;;;;;;5023281;28;20485;-60
2022/08/31 06:56:52;;;;;;;1.17;0.93;;;18.30;99.90;;;;;;5020536;28;20419;-61
2022/08/31 06:59:19;;;;;;;1.08;1.08;;;17.90;99.90;;;;;;5026579;28;20438;-61
2022/08/31 07:01:49;;;;;;;1.10;0.90;;;17.40;99.90;;;;;;5029472;28;20955;-61
2022/08/31 07:04:16;;;;;;;1.05;1.05;;;16.90;99.90;;;;;;5025651;28;20433;-60
2022/08/31 07:06:44;;;;;;;1.20;1.00;;;16.60;99.90;;;;;;5032418;28;20532;-61
2022/08/31 07:09:16;;;;;;;1.30;1.20;;;16.40;99.90;;;;;;5029109;28;20431;-61
2022/08/31 07:11:46;;;;;;;1.00;1.00;;;16.20;99.90;;;;;;5024584;28;20434;-61
2022/08/31 07:14:20;;;;;;;1.35;1.30;;;16.10;99.90;;;;;;5027390;28;20441;-61
2022/08/31 07:16:49;;;;;;;0.90;0.90;;;16.10;99.90;;;;;;5030789;28;21075;-61
2022/08/31 07:19:16;;;;;;;1.60;1.20;;;16.00;99.90;;;;;;5023296;28;20475;-61
2022/08/31 07:21:52;;;;;;;1.67;1.48;;;15.90;99.90;;;;;;5024421;28;20448;-61
2022/08/31 07:24:27;;;;;;;1.13;1.02;;;15.90;99.90;;;;;;5026670;28;20434;-62
2022/08/31 07:26:58;;;;;;;0.95;0.93;;;15.90;99.90;;;;;;5027066;28;20469;-61
2022/08/31 07:29:29;;;;;;;1.00;1.00;;;15.90;99.90;;;;;;5026626;28;20435;-61
2022/08/31 07:31:58;;;;;;;1.40;1.25;;;15.90;99.90;;;;;;5031312;28;20466;-62
2022/08/31 07:34:28;;;;;;;2.00;1.30;;;16.00;99.90;;;;;;5022039;28;20526;-62
2022/08/31 07:42:42;;;;;;;1.20;1.20;;;16.10;99.90;;;;;;5028983;28;20441;-61
2022/08/31 07:45:20;;;;;;;1.13;1.13;;;16.10;99.90;;;;;;5020896;28;20430;-62
2022/08/31 07:47:50;;;;;;;1.40;1.30;;;16.10;99.90;;;;;;5017011;28;20541;-62
2022/08/31 07:50:19;;;;;;;1.55;1.40;;;16.10;99.90;;;;;;5021182;28;20519;-62
2022/08/31 07:52:56;;;;;;;1.17;1.17;;;16.10;99.90;;;;;;5027141;28;20522;-62
2022/08/31 07:55:29;;;;;;;1.70;1.30;;;16.10;99.90;;;;;;5026616;28;20840;-63
2022/08/31 07:57:56;;;;;;;1.37;1.37;;;16.10;99.90;;;;;;5019551;28;20443;-62
2022/08/31 08:00:27;;;;;;;1.27;1.17;;;16.20;99.90;;;;;;5025063;28;20826;-62
2022/08/31 08:02:55;;;;;;;2.00;1.17;;;16.30;99.90;;;;;;5021524;28;21211;-63
2022/08/31 08:05:27;;;;;;;1.52;1.42;;;16.30;99.90;;;;;;5026759;28;20508;-63
2022/08/31 08:08:04;;;;;;;1.58;1.48;;;16.40;99.90;;;;;;5021373;28;20430;-62
2022/08/31 08:10:42;;;;;;;1.08;1.08;;;16.40;99.90;;;;;;5030712;28;20497;-62
2022/08/31 08:13:11;;;;;;;1.08;1.08;;;16.50;99.90;;;;;;5029616;28;20979;-62
2022/08/31 08:15:41;;;;;;;1.25;1.25;;;16.50;99.90;;;;;;5054571;28;20501;-63
2022/08/31 08:18:09;;;;;;;1.50;1.40;;;16.60;99.90;;;;;;5027731;28;20518;-63
2022/08/31 08:20:37;;;;;;;1.20;1.17;;;16.70;99.90;;;;;;5026238;28;20448;-63
2022/08/31 08:23:13;;;;;;;0.85;0.85;;;16.80;99.90;;;;;;5026091;28;20443;-63
2022/08/31 08:25:41;;;;;;;1.77;1.58;;;16.90;99.90;;;;;;5025236;28;20436;-63
2022/08/31 08:28:20;;;;;;;1.50;1.40;;;17.00;99.90;;;;;;5024787;28;20816;-63
2022/08/31 08:31:13;;;;;;;1.15;1.15;;;17.10;99.90;;;;;;5021295;28;20422;-63
2022/08/31 08:33:40;;;;;;;0.98;0.98;;;17.30;99.90;;;;;;5025117;28;20431;-63
2022/08/31 08:36:07;;;;;;;1.00;1.00;;;17.30;99.90;;;;;;5021008;28;20562;-63
2022/08/31 08:38:44;;;;;;;1.30;1.20;;;17.40;99.90;;;;;;5021510;28;20446;-63
2022/08/31 08:41:18;;;;;;;0.90;0.90;;;17.40;99.90;;;;;;5023414;28;20434;-63
2022/08/31 08:43:50;;;;;;;1.30;0.98;;;17.50;99.90;;;;;;5040801;28;20520;-64
2022/08/31 08:46:28;;;;;;;0.90;0.90;;;17.60;99.90;;;;;;5026894;28;20426;-63
2022/08/31 08:49:23;;;;;;;1.05;1.05;;;17.60;99.90;;;;;;5026736;28;20447;-64
2022/08/31 08:52:01;;;;;;;0.95;0.95;;;17.70;99.90;;;;;;5023341;28;20446;-64
2022/08/31 08:54:38;;;;;;;0.77;0.77;;;17.70;99.90;;;;;;5023258;28;20842;-64
2022/08/31 08:57:15;;;;;;;1.33;1.23;;;17.70;99.90;;;;;;5027020;28;20530;-63
2022/08/31 08:59:44;;;;;;;0.90;0.90;;;17.70;99.90;;;;;;5008240;28;20917;-62
2022/08/31 09:02:18;;;;;;;1.13;1.13;;;17.70;99.90;;;;;;5018808;28;20840;-63
2022/08/31 09:05:23;;;;;;;0.90;0.90;;;17.70;99.90;;;;;;5021279;28;20431;-64
2022/08/31 09:08:09;;;;;;;1.30;1.20;;;17.70;99.90;;;;;;5016375;28;20514;-63
2022/08/31 09:10:41;;;;;;;1.00;1.00;;;17.70;99.90;;;;;;5024537;28;20445;-63
2022/08/31 09:13:28;;;;;;;0.95;0.95;;;17.60;99.90;;;;;;5017314;28;20491;-63
2022/08/31 09:16:09;;;;;;;1.00;0.90;;;17.60;99.90;;;;;;5020272;28;20434;-63
2022/08/31 09:18:42;;;;;;;0.93;0.93;;;17.60;99.90;;;;;;5021552;28;20462;-64
2022/08/31 09:21:20;;;;;;;1.00;1.00;;;17.60;99.90;;;;;;5021803;28;20446;-64
2022/08/31 09:24:11;;;;;;;1.50;1.08;;;17.40;99.90;;;;;;5025956;28;20489;-63
2022/08/31 09:27:16;;;;;;;1.00;1.00;;;17.30;99.90;;;;;;5022499;28;20443;-64
2022/08/31 09:29:56;;;;;;;0.90;0.90;;;17.10;99.90;;;;;;5018397;28;20943;-64
2022/08/31 09:32:34;;;;;;;0.95;0.95;;;17.00;99.90;;;;;;5025967;28;20518;-65
2022/08/31 09:35:39;;;;;;;1.02;0.93;;;17.00;99.90;;;;;;5024097;28;20434;-64
2022/08/31 09:38:11;;;;;;;0.90;0.90;;;17.00;99.90;;;;;;5025456;28;20430;-63
2022/08/31 09:40:43;;;;;;;0.90;0.90;;;17.10;99.90;;;;;;5023352;28;20477;-65
2022/08/31 09:43:24;;;;;;;0.90;0.90;;;17.10;99.90;;;;;;5013448;28;20427;-64
2022/08/31 09:46:08;;;;;;;1.38;1.27;;;17.20;99.90;;;;;;5020619;28;22371;-65
2022/08/31 09:48:42;;;;;;;1.08;1.08;;;17.30;99.90;;;;;;5023895;28;20483;-63
2022/08/31 09:51:19;;;;;;;1.17;1.08;;;17.30;99.90;;;;;;5020425;28;20430;-63
2022/08/31 09:56:54;;;;;;;1.00;1.00;;;17.40;99.90;;;;;;5018290;28;20436;-64
2022/08/31 09:59:33;;;;;;;1.20;1.10;;;17.40;99.90;;;;;;5027380;28;20458;-64
2022/08/31 10:02:21;;;;;;;0.93;0.93;;;17.40;99.90;;;;;;5026796;28;20433;-64
2022/08/31 10:04:59;;;;;;;0.98;0.93;;;17.40;99.90;;;;;;5023556;28;20527;-64
2022/08/31 10:07:42;;;;;;;0.98;0.98;;;17.30;99.90;;;;;;5018388;28;20853;-65
2022/08/31 10:10:25;;;;;;;2.70;1.30;;;17.40;99.90;;;;;;5022374;28;20437;-65
2022/08/31 10:13:03;;;;;;;1.10;1.10;;;17.40;99.90;;;;;;5021865;28;20789;-64
2022/08/31 10:15:40;;;;;;;1.20;1.10;;;17.50;99.90;;;;;;5025497;28;20983;-64
2022/08/31 10:18:13;;;;;;;1.20;1.20;;;17.40;99.90;;;;;;5025996;28;20466;-65
2022/08/31 10:20:54;;;;;;;1.27;1.27;;;17.60;99.90;;;;;;5023373;28;20442;-65
2022/08/31 10:23:33;;;;;;;1.05;1.02;;;17.60;99.90;;;;;;5018600;28;20522;-65
2022/08/31 10:26:06;;;;;;;1.17;1.17;;;17.50;99.90;;;;;;5020383;28;20431;-65
2022/08/31 10:28:48;;;;;;;1.17;1.17;;;17.60;99.90;;;;;;5024551;28;20455;-66
2022/08/31 10:31:28;;;;;;;1.17;1.13;;;17.60;99.90;;;;;;5024348;28;20442;-65
2022/08/31 10:37:08;;;;;;;1.10;1.10;;;17.90;99.90;;;;;;5027697;28;20441;-65
2022/08/31 10:39:43;;;;;;;1.25;1.25;;;18.10;99.90;;;;;;5021932;28;20443;-65
2022/08/31 10:42:20;;;;;;;1.50;1.40;;;18.20;99.90;;;;;;5014895;28;20547;-66
2022/08/31 10:44:55;;;;;;;1.50;1.40;;;18.40;99.90;;;;;;5015326;28;20430;-65
2022/08/31 10:47:29;;;;;;;1.67;1.57;;;18.40;99.90;;;;;;5028935;28;20507;-66
2022/08/31 10:50:02;;;;;;;1.35;1.25;;;18.60;99.90;;;;;;5029296;28;20431;-65
2022/08/31 10:52:54;;;;;;;2.50;1.40;;;18.90;99.90;;;;;;5029354;28;20493;-65
2022/08/31 10:55:42;;;;;;;1.42;1.27;;;18.90;99.90;;;;;;5013624;28;20529;-65
2022/08/31 10:59:07;;;;;;;1.27;1.27;;;19.00;99.90;;;;;;5028110;28;20454;-66
2022/08/31 11:01:58;;;;;;;1.75;1.65;;;19.50;99.90;;;;;;4925955;29;20909;-66
2022/08/31 11:04:44;;;;;;;1.30;1.30;;;20.10;99.90;;;;;;4986861;28;20971;-66
2022/08/31 11:07:25;;;;;;;1.50;1.40;;;20.60;99.90;;;;;;5027943;28;20430;-66
2022/08/31 11:10:15;;;;;;;1.48;1.38;;;20.90;99.90;;;;;;5028408;28;20434;-68
2022/08/31 11:12:50;;;;;;;1.40;1.30;;;21.20;99.90;;;;;;5029078;28;20940;-68
2022/08/31 11:15:53;;;;;;;1.50;1.40;;;21.60;99.90;;;;;;5024129;28;20480;-68
2022/08/31 11:18:49;;;;;;;1.60;1.50;;;22.10;99.90;;;;;;5028816;28;20505;-68
2022/08/31 11:21:37;;;;;;;1.45;1.20;;;22.30;99.90;;;;;;5011516;28;20440;-68
2022/08/31 11:24:23;;;;;;;1.20;1.10;;;22.60;99.90;;;;;;5026782;28;20541;-68
2022/08/31 11:27:16;;;;;;;0.82;0.82;;;22.90;99.90;;;;;;5029574;28;20437;-68
2022/08/31 11:30:09;;;;;;;1.20;1.00;;;23.30;99.90;;;;;;5032159;28;20458;-69
2022/08/31 11:32:51;;;;;;;1.35;1.35;;;23.70;99.90;;;;;;5032826;28;20521;-69
2022/08/31 11:35:46;;;;;;;1.17;1.17;;;23.80;99.90;;;;;;5029507;28;20778;-68
2022/08/31 11:38:53;;;;;;;1.40;1.30;;;24.10;99.90;;;;;;5016867;28;20486;-69
2022/08/31 11:41:46;;;;;;;1.13;1.13;;;24.00;99.90;;;;;;5028905;28;20514;-69
2022/08/31 11:44:32;;;;;;;1.10;1.10;;;24.40;99.90;;;;;;5028057;28;20441;-69
2022/08/31 11:47:08;;;;;;;1.17;1.13;;;24.50;99.90;;;;;;5025451;28;20433;-68
2022/08/31 11:49:42;;;;;;;1.10;1.10;;;24.50;99.90;;;;;;5027589;28;20805;-68
2022/08/31 11:52:41;;;;;;;1.10;1.10;;;24.60;99.90;;;;;;5026068;28;20433;-68
2022/08/31 11:55:21;;;;;;;1.17;1.17;;;24.90;99.90;;;;;;5025875;28;20474;-68
2022/08/31 11:58:06;;;;;;;1.10;1.10;;;25.50;99.90;;;;;;5020979;28;20955;-68
2022/08/31 12:00:58;;;;;;;1.20;1.20;;;25.90;99.90;;;;;;5027611;28;20430;-68
2022/08/31 12:03:50;;;;;;;1.00;1.00;;;26.30;99.90;;;;;;5026066;28;21096;-68
2022/08/31 12:06:32;;;;;;;0.90;0.90;;;26.20;99.90;;;;;;5023907;28;20448;-67
2022/08/31 12:09:11;;;;;;;0.80;0.80;;;26.40;99.90;;;;;;5026677;28;20446;-69
2022/08/31 12:12:05;;;;;;;0.60;0.60;;;26.60;99.90;;;;;;5024485;28;20438;-68
2022/08/31 12:15:09;;;;;;;0.88;0.88;;;26.70;99.90;;;;;;5024022;28;20427;-67
2022/08/31 12:18:03;;;;;;;0.95;0.95;;;27.70;99.90;;;;;;5016477;28;20941;-69
2022/08/31 12:24:32;;;;;;;1.13;1.13;;;29.30;99.90;;;;;;4966042;28;20444;-66
2022/08/31 12:27:31;;;;;;;1.20;1.20;;;29.60;99.90;;;;;;4963001;28;20460;-68
2022/08/31 12:30:24;;;;;;;0.93;0.93;;;29.50;99.90;;;;;;4965506;28;20436;-66
2022/08/31 12:32:56;;;;;;;1.17;1.17;;;29.40;99.90;;;;;;4965293;28;21185;-67
2022/08/31 12:35:29;;;;;;;1.00;1.00;;;29.20;99.90;;;;;;4965262;28;20523;-67
2022/08/31 12:37:59;;;;;;;1.00;1.00;;;29.30;99.90;;;;;;4962060;28;20537;-66
2022/08/31 12:40:28;;;;;;;1.10;1.00;;;29.50;99.90;;;;;;4966014;28;20432;-66
2022/08/31 12:43:19;;;;;;;1.05;0.90;;;30.50;99.90;;;;;;4966649;28;20438;-68
2022/08/31 12:46:25;;;;;;;0.95;0.95;;;31.00;99.90;;;;;;4966060;28;20957;-67
2022/08/31 12:49:20;;;;;;;1.38;1.27;;;31.10;99.90;;;;;;4946989;28;20427;-67
2022/08/31 12:52:17;;;;;;;1.10;1.10;;;30.20;99.90;;;;;;4966003;28;20884;-68
2022/08/31 12:55:22;;;;;;;1.20;1.10;;;29.70;99.90;;;;;;4955664;28;20512;-66
2022/08/31 12:57:58;;;;;;;1.30;1.30;;;29.70;99.90;;;;;;4963147;28;20483;-66
2022/08/31 13:00:33;;;;;;;1.25;1.17;;;30.20;99.90;;;;;;5008904;28;21172;-66
2022/08/31 13:03:25;;;;;;;1.35;1.35;;;29.70;99.90;;;;;;5022387;28;20520;-66
2022/08/31 13:06:12;;;;;;;1.10;1.10;;;29.00;99.90;;;;;;5023554;28;20427;-66
2022/08/31 13:08:44;;;;;;;1.33;1.23;;;28.50;99.90;;;;;;5023203;28;21121;-67
2022/08/31 13:11:27;;;;;;;0.95;0.95;;;28.30;99.90;;;;;;5022944;28;20430;-65
2022/08/31 13:14:42;;;;;;;1.30;1.30;;;28.20;99.90;;;;;;5023489;28;20797;-66
2022/08/31 13:17:16;;;;;;;1.38;1.27;;;27.60;99.90;;;;;;5023830;28;20431;-66
2022/08/31 13:20:00;;;;;;;1.30;1.20;;;27.30;99.90;;;;;;5022415;28;20531;-65
2022/08/31 13:22:33;;;;;;;0.98;0.95;;;27.20;99.90;;;;;;5023681;28;20475;-61
2022/08/31 13:25:32;;;;;;;1.00;0.90;;;27.60;99.90;;;;;;5026096;28;20437;-67
2022/08/31 13:27:59;;;;;;;0.80;0.80;;;28.80;99.90;;;;;;5004958;28;20441;-66
2022/08/31 13:30:33;;;;;;;0.77;0.77;;;30.10;99.90;;;;;;5020186;28;20747;-65
2022/08/31 13:33:07;;;;;;;1.00;1.00;;;31.40;98.80;;;;;;5027249;28;20848;-68
2022/08/31 13:35:46;;;;;;;1.20;1.20;;;32.30;97.90;;;;;;5029369;28;20462;-67
2022/08/31 13:38:15;;;;;;;0.95;0.95;;;32.60;97.80;;;;;;5028688;28;20434;-66
2022/08/31 13:40:49;;;;;;;0.88;0.88;;;32.10;97.30;;;;;;5030582;28;20518;-65
2022/08/31 13:43:25;;;;;;;0.80;0.80;;;30.70;98.10;;;;;;5025177;28;20872;-67
2022/08/31 13:45:57;;;;;;;0.82;0.82;;;30.00;96.40;;;;;;5022930;28;21120;-65